sensor_id;sensor_type;location;lat;lon;timestamp;P1;durP1;ratioP1;P2;durP2;ratioP2
31798;SDS011;18374;51.136;3.502;2022-12-24T09:02:25;43.65;;;6.78;;
31798;SDS011;18374;51.136;3.502;2022-12-24T09:04:53;34.78;;;5.70;;
31798;SDS011;18374;51.136;3.502;2022-12-24T09:07:20;36.35;;;5.60;;
31798;SDS011;18374;51.136;3.502;2022-12-24T09:09:48;34.83;;;5.22;;
31798;SDS011;18374;51.136;3.502;2022-12-24T09:12:15;45.47;;;5.78;;
31798;SDS011;18374;51.136;3.502;2022-12-24T09:14:43;34.55;;;5.60;;
31798;SDS011;18374;51.136;3.502;2022-12-24T09:17:11;29.35;;;5.90;;
31798;SDS011;18374;51.136;3.502;2022-12-24T09:19:39;48.17;;;5.57;;
31798;SDS011;18374;51.136;3.502;2022-12-24T09:22:07;33.75;;;5.53;;
31798;SDS011;18374;51.136;3.502;2022-12-24T09:24:34;30.92;;;5.07;;
31798;SDS011;18374;51.136;3.502;2022-12-24T09:27:02;35.58;;;6.32;;
31798;SDS011;18374;51.136;3.502;2022-12-24T09:29:30;31.98;;;5.40;;
31798;SDS011;18374;51.136;3.502;2022-12-24T09:31:58;41.20;;;5.45;;
31798;SDS011;18374;51.136;3.502;2022-12-24T09:34:26;47.33;;;6.05;;
31798;SDS011;18374;51.136;3.502;2022-12-24T09:36:56;31.77;;;5.30;;
31798;SDS011;18374;51.136;3.502;2022-12-24T09:39:26;38.28;;;5.18;;
31798;SDS011;18374;51.136;3.502;2022-12-24T09:50:31;37.05;;;5.38;;
31798;SDS011;18374;51.136;3.502;2022-12-24T09:55:55;33.90;;;5.70;;
31798;SDS011;18374;51.136;3.502;2022-12-24T09:58:30;40.20;;;5.47;;
31798;SDS011;18374;51.136;3.502;2022-12-24T10:01:25;38.20;;;6.45;;
31798;SDS011;18374;51.136;3.502;2022-12-24T10:04:14;36.75;;;5.43;;
31798;SDS011;18374;51.136;3.502;2022-12-24T10:12:25;23.45;;;4.93;;
31798;SDS011;18374;51.136;3.502;2022-12-24T10:29:39;32.10;;;5.85;;
31798;SDS011;18374;51.136;3.502;2022-12-24T10:32:20;40.00;;;5.97;;
31798;SDS011;18374;51.136;3.502;2022-12-24T10:34:56;35.33;;;5.65;;
31798;SDS011;18374;51.136;3.502;2022-12-24T10:37:30;28.42;;;5.38;;
31798;SDS011;18374;51.136;3.502;2022-12-24T10:39:59;34.38;;;6.70;;
31798;SDS011;18374;51.136;3.502;2022-12-24T10:42:36;28.10;;;5.90;;
31798;SDS011;18374;51.136;3.502;2022-12-24T10:45:21;41.70;;;6.90;;
31798;SDS011;18374;51.136;3.502;2022-12-24T10:47:53;39.70;;;5.78;;
31798;SDS011;18374;51.136;3.502;2022-12-24T10:50:30;27.02;;;6.15;;
31798;SDS011;18374;51.136;3.502;2022-12-24T10:53:11;36.55;;;6.70;;
31798;SDS011;18374;51.136;3.502;2022-12-24T10:56:03;40.25;;;7.10;;
31798;SDS011;18374;51.136;3.502;2022-12-24T10:58:42;32.03;;;5.70;;
31798;SDS011;18374;51.136;3.502;2022-12-24T11:01:20;40.92;;;5.70;;
31798;SDS011;18374;51.136;3.502;2022-12-24T11:04:13;40.08;;;6.30;;
31798;SDS011;18374;51.136;3.502;2022-12-24T11:06:54;42.42;;;7.00;;
31798;SDS011;18374;51.136;3.502;2022-12-24T11:09:28;41.25;;;6.00;;
31798;SDS011;18374;51.136;3.502;2022-12-24T11:12:03;30.20;;;5.50;;
31798;SDS011;18374;51.136;3.502;2022-12-24T11:14:43;31.85;;;5.88;;
31798;SDS011;18374;51.136;3.502;2022-12-24T11:17:21;30.38;;;5.82;;
31798;SDS011;18374;51.136;3.502;2022-12-24T11:19:49;34.13;;;6.80;;
31798;SDS011;18374;51.136;3.502;2022-12-24T11:22:25;35.78;;;5.55;;
31798;SDS011;18374;51.136;3.502;2022-12-24T11:25:06;37.13;;;6.25;;
31798;SDS011;18374;51.136;3.502;2022-12-24T11:27:47;40.88;;;6.38;;
31798;SDS011;18374;51.136;3.502;2022-12-24T11:30:22;44.10;;;7.47;;
31798;SDS011;18374;51.136;3.502;2022-12-24T11:35:30;36.97;;;6.82;;
31798;SDS011;18374;51.136;3.502;2022-12-24T11:40:35;36.55;;;6.30;;
31798;SDS011;18374;51.136;3.502;2022-12-24T11:43:20;31.48;;;6.40;;
31798;SDS011;18374;51.136;3.502;2022-12-24T11:48:37;33.35;;;6.35;;
31798;SDS011;18374;51.136;3.502;2022-12-24T11:51:06;39.80;;;6.07;;
31798;SDS011;18374;51.136;3.502;2022-12-24T11:54:34;38.05;;;6.15;;
31798;SDS011;18374;51.136;3.502;2022-12-24T11:56:51;33.85;;;5.65;;
31798;SDS011;18374;51.136;3.502;2022-12-24T11:59:30;42.63;;;5.57;;
31798;SDS011;18374;51.136;3.502;2022-12-24T12:04:38;39.25;;;6.15;;
31798;SDS011;18374;51.136;3.502;2022-12-24T12:07:16;33.22;;;5.40;;
31798;SDS011;18374;51.136;3.502;2022-12-24T12:10:13;47.67;;;6.18;;
31798;SDS011;18374;51.136;3.502;2022-12-24T12:12:49;34.70;;;5.30;;
31798;SDS011;18374;51.136;3.502;2022-12-24T12:15:23;39.90;;;6.25;;
31798;SDS011;18374;51.136;3.502;2022-12-24T12:18:03;37.08;;;5.63;;
31798;SDS011;18374;51.136;3.502;2022-12-24T12:31:53;28.30;;;5.57;;
31798;SDS011;18374;51.136;3.502;2022-12-24T12:34:39;35.50;;;5.53;;
31798;SDS011;18374;51.136;3.502;2022-12-24T12:37:29;27.50;;;4.95;;
31798;SDS011;18374;51.136;3.502;2022-12-24T12:40:15;37.92;;;6.30;;
31798;SDS011;18374;51.136;3.502;2022-12-24T12:42:51;28.70;;;5.32;;
31798;SDS011;18374;51.136;3.502;2022-12-24T12:49:27;33.83;;;5.30;;
31798;SDS011;18374;51.136;3.502;2022-12-24T12:52:01;44.80;;;6.05;;
31798;SDS011;18374;51.136;3.502;2022-12-24T12:58:12;31.67;;;6.03;;
31798;SDS011;18374;51.136;3.502;2022-12-24T13:01:15;28.00;;;5.25;;
31798;SDS011;18374;51.136;3.502;2022-12-24T13:04:03;41.60;;;6.30;;
31798;SDS011;18374;51.136;3.502;2022-12-24T13:12:57;26.33;;;5.78;;
31798;SDS011;18374;51.136;3.502;2022-12-24T13:22:16;26.40;;;4.00;;
31798;SDS011;18374;51.136;3.502;2022-12-24T13:24:51;28.02;;;5.00;;
31798;SDS011;18374;51.136;3.502;2022-12-24T13:27:31;37.58;;;6.82;;
31798;SDS011;18374;51.136;3.502;2022-12-24T13:32:59;30.60;;;5.22;;
31798;SDS011;18374;51.136;3.502;2022-12-24T13:35:29;25.83;;;4.72;;
31798;SDS011;18374;51.136;3.502;2022-12-24T13:40:54;26.92;;;5.90;;
31798;SDS011;18374;51.136;3.502;2022-12-24T13:43:22;28.30;;;4.50;;
31798;SDS011;18374;51.136;3.502;2022-12-24T13:45:50;34.80;;;5.70;;
31798;SDS011;18374;51.136;3.502;2022-12-24T13:48:29;44.83;;;6.75;;
31798;SDS011;18374;51.136;3.502;2022-12-24T13:51:00;30.60;;;5.72;;
31798;SDS011;18374;51.136;3.502;2022-12-24T13:53:48;32.97;;;5.60;;
31798;SDS011;18374;51.136;3.502;2022-12-24T13:56:25;34.47;;;5.15;;
31798;SDS011;18374;51.136;3.502;2022-12-24T14:02:00;27.65;;;6.03;;
31798;SDS011;18374;51.136;3.502;2022-12-24T14:04:33;28.85;;;5.70;;
31798;SDS011;18374;51.136;3.502;2022-12-24T14:07:02;40.72;;;6.93;;
31798;SDS011;18374;51.136;3.502;2022-12-24T14:09:31;31.38;;;6.50;;
31798;SDS011;18374;51.136;3.502;2022-12-24T14:14:37;34.38;;;5.32;;
31798;SDS011;18374;51.136;3.502;2022-12-24T14:19:50;35.92;;;6.00;;
31798;SDS011;18374;51.136;3.502;2022-12-24T14:28:03;24.25;;;6.35;;
31798;SDS011;18374;51.136;3.502;2022-12-24T14:30:33;31.95;;;5.35;;
31798;SDS011;18374;51.136;3.502;2022-12-24T14:33:01;41.03;;;6.75;;
31798;SDS011;18374;51.136;3.502;2022-12-24T14:35:33;26.58;;;5.18;;
31798;SDS011;18374;51.136;3.502;2022-12-24T14:38:12;24.20;;;5.43;;
31798;SDS011;18374;51.136;3.502;2022-12-24T14:41:10;32.28;;;5.38;;
31798;SDS011;18374;51.136;3.502;2022-12-24T14:47:07;28.63;;;5.88;;
31798;SDS011;18374;51.136;3.502;2022-12-24T14:52:52;25.33;;;4.38;;
31798;SDS011;18374;51.136;3.502;2022-12-24T14:55:41;30.30;;;5.50;;
31798;SDS011;18374;51.136;3.502;2022-12-24T14:58:18;28.13;;;5.07;;
31798;SDS011;18374;51.136;3.502;2022-12-24T15:00:49;28.83;;;5.00;;
31798;SDS011;18374;51.136;3.502;2022-12-24T15:03:21;28.92;;;5.03;;
31798;SDS011;18374;51.136;3.502;2022-12-24T15:05:59;39.17;;;6.32;;
31798;SDS011;18374;51.136;3.502;2022-12-24T15:08:35;33.00;;;5.80;;
31798;SDS011;18374;51.136;3.502;2022-12-24T15:11:07;32.75;;;5.93;;
31798;SDS011;18374;51.136;3.502;2022-12-24T15:13:45;26.48;;;4.85;;
31798;SDS011;18374;51.136;3.502;2022-12-24T15:16:30;21.95;;;5.70;;
31798;SDS011;18374;51.136;3.502;2022-12-24T15:21:37;35.55;;;6.30;;
31798;SDS011;18374;51.136;3.502;2022-12-24T15:24:30;27.92;;;6.05;;
31798;SDS011;18374;51.136;3.502;2022-12-24T15:27:17;33.20;;;5.82;;
31798;SDS011;18374;51.136;3.502;2022-12-24T15:29:52;21.35;;;5.63;;
31798;SDS011;18374;51.136;3.502;2022-12-24T15:32:24;21.35;;;5.47;;
31798;SDS011;18374;51.136;3.502;2022-12-24T15:34:53;26.58;;;5.85;;
31798;SDS011;18374;51.136;3.502;2022-12-24T15:37:23;26.73;;;6.40;;
31798;SDS011;18374;51.136;3.502;2022-12-24T15:40:03;23.50;;;5.40;;
31798;SDS011;18374;51.136;3.502;2022-12-24T15:42:39;31.83;;;6.25;;
31798;SDS011;18374;51.136;3.502;2022-12-24T15:45:13;30.67;;;6.38;;
31798;SDS011;18374;51.136;3.502;2022-12-24T15:47:58;27.10;;;5.82;;
31798;SDS011;18374;51.136;3.502;2022-12-24T15:50:34;26.42;;;6.28;;
31798;SDS011;18374;51.136;3.502;2022-12-24T15:53:05;35.13;;;6.38;;
31798;SDS011;18374;51.136;3.502;2022-12-24T15:56:01;32.25;;;5.65;;
31798;SDS011;18374;51.136;3.502;2022-12-24T16:03:37;28.58;;;4.93;;
31798;SDS011;18374;51.136;3.502;2022-12-24T16:06:27;21.45;;;5.28;;
31798;SDS011;18374;51.136;3.502;2022-12-24T16:09:58;27.25;;;5.45;;
31798;SDS011;18374;51.136;3.502;2022-12-24T16:12:23;25.80;;;5.75;;
31798;SDS011;18374;51.136;3.502;2022-12-24T16:14:56;18.50;;;5.13;;
31798;SDS011;18374;51.136;3.502;2022-12-24T16:17:27;23.67;;;6.47;;
31798;SDS011;18374;51.136;3.502;2022-12-24T16:19:59;18.55;;;6.65;;
31798;SDS011;18374;51.136;3.502;2022-12-24T16:22:56;19.20;;;5.68;;
31798;SDS011;18374;51.136;3.502;2022-12-24T16:25:27;27.27;;;7.00;;
31798;SDS011;18374;51.136;3.502;2022-12-24T16:27:56;25.42;;;6.40;;
31798;SDS011;18374;51.136;3.502;2022-12-24T16:30:35;26.00;;;7.75;;
31798;SDS011;18374;51.136;3.502;2022-12-24T16:33:12;28.33;;;7.45;;
31798;SDS011;18374;51.136;3.502;2022-12-24T16:35:47;30.77;;;8.10;;
31798;SDS011;18374;51.136;3.502;2022-12-24T16:38:21;30.35;;;7.05;;
31798;SDS011;18374;51.136;3.502;2022-12-24T16:41:17;31.30;;;6.68;;
31798;SDS011;18374;51.136;3.502;2022-12-24T16:44:02;24.38;;;7.15;;
31798;SDS011;18374;51.136;3.502;2022-12-24T16:46:53;20.45;;;6.38;;
31798;SDS011;18374;51.136;3.502;2022-12-24T16:49:32;32.38;;;7.05;;
31798;SDS011;18374;51.136;3.502;2022-12-24T16:52:34;32.45;;;7.53;;
31798;SDS011;18374;51.136;3.502;2022-12-24T16:55:11;30.02;;;7.82;;
31798;SDS011;18374;51.136;3.502;2022-12-24T16:57:51;33.33;;;8.73;;
31798;SDS011;18374;51.136;3.502;2022-12-24T17:00:21;26.63;;;7.97;;
31798;SDS011;18374;51.136;3.502;2022-12-24T17:03:12;38.58;;;8.68;;
31798;SDS011;18374;51.136;3.502;2022-12-24T17:05:42;33.17;;;8.27;;
31798;SDS011;18374;51.136;3.502;2022-12-24T17:08:11;36.13;;;9.35;;
31798;SDS011;18374;51.136;3.502;2022-12-24T17:10:40;37.67;;;9.38;;
31798;SDS011;18374;51.136;3.502;2022-12-24T17:13:17;34.42;;;10.55;;
31798;SDS011;18374;51.136;3.502;2022-12-24T17:15:44;38.72;;;9.95;;
31798;SDS011;18374;51.136;3.502;2022-12-24T17:18:12;28.38;;;9.63;;
31798;SDS011;18374;51.136;3.502;2022-12-24T17:20:40;32.90;;;9.77;;
31798;SDS011;18374;51.136;3.502;2022-12-24T17:23:08;38.55;;;9.40;;
31798;SDS011;18374;51.136;3.502;2022-12-24T17:25:49;29.23;;;8.85;;
31798;SDS011;18374;51.136;3.502;2022-12-24T17:28:22;39.38;;;10.07;;
31798;SDS011;18374;51.136;3.502;2022-12-24T17:31:21;28.27;;;9.88;;
31798;SDS011;18374;51.136;3.502;2022-12-24T17:34:07;31.17;;;9.48;;
31798;SDS011;18374;51.136;3.502;2022-12-24T17:36:36;37.85;;;10.10;;
31798;SDS011;18374;51.136;3.502;2022-12-24T17:39:12;36.33;;;9.02;;
31798;SDS011;18374;51.136;3.502;2022-12-24T17:41:57;30.85;;;8.75;;
31798;SDS011;18374;51.136;3.502;2022-12-24T17:44:31;30.30;;;8.18;;
31798;SDS011;18374;51.136;3.502;2022-12-24T17:47:05;35.40;;;8.20;;
31798;SDS011;18374;51.136;3.502;2022-12-24T17:49:41;33.00;;;9.25;;
31798;SDS011;18374;51.136;3.502;2022-12-24T17:52:13;34.15;;;10.02;;
31798;SDS011;18374;51.136;3.502;2022-12-24T17:54:53;35.70;;;9.35;;
31798;SDS011;18374;51.136;3.502;2022-12-24T17:57:25;28.55;;;8.98;;
31798;SDS011;18374;51.136;3.502;2022-12-24T18:00:05;30.08;;;8.80;;
31798;SDS011;18374;51.136;3.502;2022-12-24T18:02:52;28.17;;;8.00;;
31798;SDS011;18374;51.136;3.502;2022-12-24T18:05:43;38.20;;;9.55;;
31798;SDS011;18374;51.136;3.502;2022-12-24T18:08:51;39.42;;;9.13;;
31798;SDS011;18374;51.136;3.502;2022-12-24T18:11:28;35.22;;;8.95;;
31798;SDS011;18374;51.136;3.502;2022-12-24T18:14:01;27.90;;;7.95;;
31798;SDS011;18374;51.136;3.502;2022-12-24T18:16:48;25.50;;;8.45;;
31798;SDS011;18374;51.136;3.502;2022-12-24T18:19:35;30.83;;;7.60;;
31798;SDS011;18374;51.136;3.502;2022-12-24T18:22:12;30.75;;;8.18;;
31798;SDS011;18374;51.136;3.502;2022-12-24T18:24:49;34.17;;;7.85;;
31798;SDS011;18374;51.136;3.502;2022-12-24T18:27:38;32.47;;;7.75;;
31798;SDS011;18374;51.136;3.502;2022-12-24T18:30:21;31.33;;;6.95;;
31798;SDS011;18374;51.136;3.502;2022-12-24T18:32:59;32.72;;;7.53;;
31798;SDS011;18374;51.136;3.502;2022-12-24T18:35:41;27.92;;;6.35;;
31798;SDS011;18374;51.136;3.502;2022-12-24T18:38:27;44.10;;;8.95;;
31798;SDS011;18374;51.136;3.502;2022-12-24T18:41:20;32.63;;;7.72;;
31798;SDS011;18374;51.136;3.502;2022-12-24T18:44:02;37.05;;;9.18;;
31798;SDS011;18374;51.136;3.502;2022-12-24T18:46:47;26.95;;;6.75;;
31798;SDS011;18374;51.136;3.502;2022-12-24T18:49:47;26.63;;;6.80;;
31798;SDS011;18374;51.136;3.502;2022-12-24T18:52:28;34.45;;;7.00;;
31798;SDS011;18374;51.136;3.502;2022-12-24T18:55:10;32.30;;;7.38;;
31798;SDS011;18374;51.136;3.502;2022-12-24T18:58:11;33.40;;;8.07;;
31798;SDS011;18374;51.136;3.502;2022-12-24T19:00:44;25.25;;;6.38;;
31798;SDS011;18374;51.136;3.502;2022-12-24T19:03:23;28.42;;;7.50;;
31798;SDS011;18374;51.136;3.502;2022-12-24T19:06:05;35.65;;;7.03;;
31798;SDS011;18374;51.136;3.502;2022-12-24T19:08:50;35.92;;;7.22;;
31798;SDS011;18374;51.136;3.502;2022-12-24T19:11:54;34.85;;;7.15;;
31798;SDS011;18374;51.136;3.502;2022-12-24T19:14:59;28.45;;;6.78;;
31798;SDS011;18374;51.136;3.502;2022-12-24T19:18:04;30.77;;;7.32;;
31798;SDS011;18374;51.136;3.502;2022-12-24T19:20:35;26.92;;;6.03;;
31798;SDS011;18374;51.136;3.502;2022-12-24T19:23:13;30.05;;;6.22;;
31798;SDS011;18374;51.136;3.502;2022-12-24T19:25:43;24.13;;;6.07;;
31798;SDS011;18374;51.136;3.502;2022-12-24T19:28:21;25.90;;;6.88;;
31798;SDS011;18374;51.136;3.502;2022-12-24T19:30:53;28.10;;;7.07;;
31798;SDS011;18374;51.136;3.502;2022-12-24T19:33:45;30.63;;;8.05;;
31798;SDS011;18374;51.136;3.502;2022-12-24T19:36:38;34.38;;;7.47;;
31798;SDS011;18374;51.136;3.502;2022-12-24T19:39:14;24.73;;;6.43;;
31798;SDS011;18374;51.136;3.502;2022-12-24T19:42:00;26.58;;;7.28;;
31798;SDS011;18374;51.136;3.502;2022-12-24T19:44:40;23.23;;;6.22;;
31798;SDS011;18374;51.136;3.502;2022-12-24T19:47:18;26.77;;;6.28;;
31798;SDS011;18374;51.136;3.502;2022-12-24T19:50:04;20.67;;;7.05;;
31798;SDS011;18374;51.136;3.502;2022-12-24T19:52:56;26.10;;;7.35;;
31798;SDS011;18374;51.136;3.502;2022-12-24T19:55:39;28.27;;;8.10;;
31798;SDS011;18374;51.136;3.502;2022-12-24T19:58:45;29.70;;;7.55;;
31798;SDS011;18374;51.136;3.502;2022-12-24T20:01:26;41.75;;;7.60;;
31798;SDS011;18374;51.136;3.502;2022-12-24T20:04:11;29.45;;;7.13;;
31798;SDS011;18374;51.136;3.502;2022-12-24T20:06:59;32.22;;;8.27;;
31798;SDS011;18374;51.136;3.502;2022-12-24T20:09:53;21.92;;;7.55;;
31798;SDS011;18374;51.136;3.502;2022-12-24T20:12:45;27.38;;;8.43;;
31798;SDS011;18374;51.136;3.502;2022-12-24T20:15:41;26.02;;;7.82;;
31798;SDS011;18374;51.136;3.502;2022-12-24T20:18:33;25.25;;;7.35;;
31798;SDS011;18374;51.136;3.502;2022-12-24T20:21:07;34.63;;;7.63;;
31798;SDS011;18374;51.136;3.502;2022-12-24T20:23:45;26.98;;;8.98;;
31798;SDS011;18374;51.136;3.502;2022-12-24T20:26:23;23.42;;;7.43;;
31798;SDS011;18374;51.136;3.502;2022-12-24T20:29:05;29.40;;;7.45;;
31798;SDS011;18374;51.136;3.502;2022-12-24T20:31:40;32.70;;;7.50;;
31798;SDS011;18374;51.136;3.502;2022-12-24T20:34:21;26.40;;;7.80;;
31798;SDS011;18374;51.136;3.502;2022-12-24T20:37:07;32.35;;;8.18;;
31798;SDS011;18374;51.136;3.502;2022-12-24T20:39:37;18.45;;;6.25;;
31798;SDS011;18374;51.136;3.502;2022-12-24T20:42:12;23.48;;;7.90;;
31798;SDS011;18374;51.136;3.502;2022-12-24T20:44:40;25.52;;;6.75;;
31798;SDS011;18374;51.136;3.502;2022-12-24T20:47:35;28.75;;;7.80;;
31798;SDS011;18374;51.136;3.502;2022-12-24T20:50:15;32.95;;;7.97;;
31798;SDS011;18374;51.136;3.502;2022-12-24T20:52:48;29.20;;;8.27;;
31798;SDS011;18374;51.136;3.502;2022-12-24T20:55:27;21.60;;;6.97;;
31798;SDS011;18374;51.136;3.502;2022-12-24T20:57:56;20.40;;;7.72;;
31798;SDS011;18374;51.136;3.502;2022-12-24T21:00:34;29.35;;;8.25;;
31798;SDS011;18374;51.136;3.502;2022-12-24T21:03:46;29.65;;;8.00;;
31798;SDS011;18374;51.136;3.502;2022-12-24T21:06:25;22.90;;;7.45;;
31798;SDS011;18374;51.136;3.502;2022-12-24T21:09:08;27.83;;;7.45;;
31798;SDS011;18374;51.136;3.502;2022-12-24T21:11:57;25.05;;;7.63;;
31798;SDS011;18374;51.136;3.502;2022-12-24T21:14:46;25.67;;;7.63;;
31798;SDS011;18374;51.136;3.502;2022-12-24T21:17:28;22.90;;;8.27;;
31798;SDS011;18374;51.136;3.502;2022-12-24T21:20:03;25.95;;;7.82;;
31798;SDS011;18374;51.136;3.502;2022-12-24T21:22:35;26.00;;;8.52;;
31798;SDS011;18374;51.136;3.502;2022-12-24T21:25:35;33.85;;;8.20;;
31798;SDS011;18374;51.136;3.502;2022-12-24T21:28:15;29.50;;;8.32;;
31798;SDS011;18374;51.136;3.502;2022-12-24T21:31:24;28.17;;;8.10;;
31798;SDS011;18374;51.136;3.502;2022-12-24T21:34:20;22.75;;;8.43;;
31798;SDS011;18374;51.136;3.502;2022-12-24T21:42:40;23.73;;;8.48;;
31798;SDS011;18374;51.136;3.502;2022-12-24T21:45:17;30.92;;;9.02;;
31798;SDS011;18374;51.136;3.502;2022-12-24T21:47:48;33.22;;;10.23;;
31798;SDS011;18374;51.136;3.502;2022-12-24T21:50:34;25.52;;;8.77;;
31798;SDS011;18374;51.136;3.502;2022-12-24T21:53:45;31.83;;;9.70;;
31798;SDS011;18374;51.136;3.502;2022-12-24T21:56:42;26.77;;;9.52;;
31798;SDS011;18374;51.136;3.502;2022-12-24T21:59:35;23.38;;;10.63;;
31798;SDS011;18374;51.136;3.502;2022-12-24T22:02:03;28.98;;;10.75;;
31798;SDS011;18374;51.136;3.502;2022-12-24T22:04:35;27.20;;;10.85;;
31798;SDS011;18374;51.136;3.502;2022-12-24T22:07:46;27.35;;;10.77;;
31798;SDS011;18374;51.136;3.502;2022-12-24T22:10:53;27.05;;;10.68;;
31798;SDS011;18374;51.136;3.502;2022-12-24T22:13:59;18.92;;;10.70;;
31798;SDS011;18374;51.136;3.502;2022-12-24T22:16:34;30.27;;;11.70;;
31798;SDS011;18374;51.136;3.502;2022-12-24T22:19:02;24.90;;;11.52;;
31798;SDS011;18374;51.136;3.502;2022-12-24T22:22:00;29.95;;;11.73;;
31798;SDS011;18374;51.136;3.502;2022-12-24T22:24:29;31.25;;;11.93;;
31798;SDS011;18374;51.136;3.502;2022-12-24T22:27:21;26.88;;;12.00;;
31798;SDS011;18374;51.136;3.502;2022-12-24T22:29:58;26.08;;;12.48;;
31798;SDS011;18374;51.136;3.502;2022-12-24T22:32:31;32.58;;;13.02;;
31798;SDS011;18374;51.136;3.502;2022-12-24T22:35:06;25.02;;;12.30;;
31798;SDS011;18374;51.136;3.502;2022-12-24T22:38:00;29.60;;;12.85;;
31798;SDS011;18374;51.136;3.502;2022-12-24T22:40:38;27.77;;;12.15;;
31798;SDS011;18374;51.136;3.502;2022-12-24T22:43:09;29.98;;;11.68;;
31798;SDS011;18374;51.136;3.502;2022-12-24T22:45:42;27.30;;;13.10;;
31798;SDS011;18374;51.136;3.502;2022-12-24T22:48:11;31.77;;;13.73;;
31798;SDS011;18374;51.136;3.502;2022-12-24T22:50:44;31.38;;;12.50;;
31798;SDS011;18374;51.136;3.502;2022-12-24T22:53:21;22.85;;;12.93;;
31798;SDS011;18374;51.136;3.502;2022-12-24T22:56:04;28.23;;;13.43;;
31798;SDS011;18374;51.136;3.502;2022-12-24T22:58:40;34.20;;;12.45;;
31798;SDS011;18374;51.136;3.502;2022-12-24T23:01:39;25.10;;;12.38;;
31798;SDS011;18374;51.136;3.502;2022-12-24T23:04:09;22.58;;;11.88;;
31798;SDS011;18374;51.136;3.502;2022-12-24T23:06:40;25.88;;;11.60;;
31798;SDS011;18374;51.136;3.502;2022-12-24T23:09:11;23.55;;;12.07;;
31798;SDS011;18374;51.136;3.502;2022-12-24T23:11:42;26.17;;;12.20;;
31798;SDS011;18374;51.136;3.502;2022-12-24T23:14:19;29.45;;;12.05;;
31798;SDS011;18374;51.136;3.502;2022-12-24T23:17:07;27.80;;;11.48;;
31798;SDS011;18374;51.136;3.502;2022-12-24T23:19:38;27.52;;;11.50;;
31798;SDS011;18374;51.136;3.502;2022-12-24T23:22:06;26.63;;;11.50;;
31798;SDS011;18374;51.136;3.502;2022-12-24T23:24:52;25.77;;;11.82;;
31798;SDS011;18374;51.136;3.502;2022-12-24T23:27:23;21.60;;;10.45;;
31798;SDS011;18374;51.136;3.502;2022-12-24T23:30:19;20.45;;;10.45;;
31798;SDS011;18374;51.136;3.502;2022-12-24T23:32:48;21.88;;;11.07;;
31798;SDS011;18374;51.136;3.502;2022-12-24T23:35:20;25.05;;;10.75;;
31798;SDS011;18374;51.136;3.502;2022-12-24T23:38:04;23.65;;;10.73;;
31798;SDS011;18374;51.136;3.502;2022-12-24T23:40:49;25.85;;;11.02;;
31798;SDS011;18374;51.136;3.502;2022-12-24T23:43:28;29.02;;;11.68;;
31798;SDS011;18374;51.136;3.502;2022-12-24T23:46:06;26.33;;;10.82;;
31798;SDS011;18374;51.136;3.502;2022-12-24T23:48:40;24.52;;;11.30;;
31798;SDS011;18374;51.136;3.502;2022-12-24T23:51:31;20.20;;;11.15;;
31798;SDS011;18374;51.136;3.502;2022-12-24T23:54:10;24.20;;;10.30;;
31798;SDS011;18374;51.136;3.502;2022-12-24T23:56:43;20.88;;;11.13;;
31798;SDS011;18374;51.136;3.502;2022-12-24T23:59:19;25.88;;;12.23;;
